Time;durP1;ratioP1;P1;durP2;ratioP2;P2;SDS_P1;SDS_P2;PMS_P1;PMS_P2;Temp;Humidity;BMP_temperature;BMP_pressure;BME280_temperature;BME280_humidity;BME280_pressure;Samples;Min_cycle;Max_cycle;Signal;HPM_P1;HPM_P2
2022/10/19 00:01:59;;;;;;;6.03;1.55;;;12.20;99.90;;;;;;4215780;28;20036;-85
2022/10/19 00:04:00;;;;;;;6.53;0.88;;;12.20;99.90;;;;;;4197757;28;20085;-86
2022/10/19 00:06:27;;;;;;;4.10;0.85;;;12.20;99.90;;;;;;4216354;28;20050;-86
2022/10/19 00:08:27;;;;;;;6.07;0.60;;;10.80;99.90;;;;;;4215268;28;20048;-85
2022/10/19 00:10:28;;;;;;;4.68;1.00;;;12.10;99.90;;;;;;4215440;28;20379;-85
2022/10/19 00:12:29;;;;;;;4.22;0.75;;;12.20;99.90;;;;;;4216344;28;20480;-85
2022/10/19 00:14:29;;;;;;;8.13;0.80;;;12.20;99.90;;;;;;4215511;28;20067;-85
2022/10/19 00:16:33;;;;;;;6.88;0.90;;;12.20;99.90;;;;;;4216336;28;20043;-85
2022/10/19 00:18:35;;;;;;;4.90;0.88;;;12.20;99.90;;;;;;4216087;28;20044;-85
2022/10/19 00:20:36;;;;;;;5.13;0.93;;;12.20;99.90;;;;;;4214509;28;20047;-85
2022/10/19 00:22:37;;;;;;;5.65;0.95;;;12.20;99.90;;;;;;4215139;28;20048;-86
2022/10/19 00:24:38;;;;;;;2.88;0.50;;;12.20;99.90;;;;;;4213804;28;20123;-86
2022/10/19 00:26:39;;;;;;;3.15;0.80;;;12.20;99.90;;;;;;4215851;28;20044;-85
2022/10/19 00:28:40;;;;;;;1.95;0.50;;;12.20;99.90;;;;;;4198002;28;20048;-86
2022/10/19 00:30:41;;;;;;;3.97;0.85;;;12.20;99.90;;;;;;4213662;28;20074;-86
2022/10/19 00:32:41;;;;;;;3.25;0.50;;;12.40;99.90;;;;;;4215305;28;20048;-87
2022/10/19 00:34:42;;;;;;;5.10;1.00;;;12.20;99.90;;;;;;4215851;28;20440;-86
2022/10/19 00:36:44;;;;;;;9.38;1.13;;;12.20;99.90;;;;;;4214581;28;20080;-85
2022/10/19 00:38:45;;;;;;;7.20;0.80;;;12.20;99.90;;;;;;4214882;28;20050;-86
2022/10/19 00:40:47;;;;;;;1.20;0.60;;;11.90;99.90;;;;;;4215703;28;20075;-85
2022/10/19 00:42:54;;;;;;;8.10;1.30;;;12.20;99.90;;;;;;4216092;28;20040;-86
2022/10/19 00:45:03;;;;;;;4.28;0.90;;;12.30;99.90;;;;;;4214728;28;20051;-86
2022/10/19 00:47:06;;;;;;;7.72;0.80;;;12.20;99.90;;;;;;4197925;28;20064;-85
2022/10/19 00:49:23;;;;;;;7.45;0.80;;;12.20;99.90;;;;;;4214096;28;20058;-86
2022/10/19 00:51:27;;;;;;;3.80;1.13;;;12.20;99.90;;;;;;4215706;28;20053;-86
2022/10/19 00:53:29;;;;;;;3.88;0.68;;;12.20;99.90;;;;;;4221680;28;20544;-85
2022/10/19 00:55:31;;;;;;;4.88;0.65;;;12.10;99.90;;;;;;4230002;28;20144;-86
2022/10/19 00:57:32;;;;;;;2.80;0.70;;;12.20;99.90;;;;;;4231020;28;20586;-86
2022/10/19 00:59:35;;;;;;;6.45;1.40;;;12.20;99.90;;;;;;4214484;28;20077;-86
2022/10/19 01:01:36;;;;;;;4.50;0.70;;;12.20;99.90;;;;;;4232593;28;20408;-86
2022/10/19 01:03:39;;;;;;;3.65;0.65;;;12.20;99.90;;;;;;4213865;28;20131;-86
2022/10/19 01:05:42;;;;;;;5.30;0.85;;;12.20;99.90;;;;;;4213723;28;20085;-86
2022/10/19 01:07:43;;;;;;;4.88;0.70;;;12.20;99.90;;;;;;4231475;28;20413;-85
2022/10/19 01:09:44;;;;;;;3.60;0.65;;;12.10;99.90;;;;;;4232184;28;20044;-85
2022/10/19 01:12:09;;;;;;;7.07;1.25;;;12.20;99.90;;;;;;4232500;28;20071;-85
2022/10/19 01:14:22;;;;;;;3.03;0.43;;;12.20;99.90;;;;;;4232040;28;20055;-85
2022/10/19 01:16:42;;;;;;;6.85;1.23;;;12.60;99.90;;;;;;4232420;28;20139;-85
2022/10/19 01:18:49;;;;;;;4.00;0.60;;;12.20;99.90;;;;;;4213695;28;20078;-85
2022/10/19 01:21:05;;;;;;;3.50;0.68;;;12.20;99.90;;;;;;4230936;28;20046;-85
2022/10/19 01:23:36;;;;;;;3.90;0.60;;;12.20;99.90;;;;;;4231842;28;20039;-86
2022/10/19 01:26:02;;;;;;;1.23;0.60;;;12.20;99.90;;;;;;4232330;28;20044;-86
2022/10/19 01:28:15;;;;;;;3.17;0.95;;;12.20;99.90;;;;;;4230279;28;20051;-85
2022/10/19 01:30:19;;;;;;;4.82;0.60;;;12.20;99.90;;;;;;4232180;28;20152;-84
2022/10/19 01:32:26;;;;;;;2.78;0.50;;;12.20;99.90;;;;;;4232266;28;20036;-85
2022/10/19 01:34:33;;;;;;;2.85;0.60;;;12.20;99.90;;;;;;4213499;28;20048;-84
2022/10/19 01:36:42;;;;;;;4.78;0.70;;;12.20;99.90;;;;;;4213707;28;20056;-84
2022/10/19 01:39:01;;;;;;;5.18;1.08;;;12.10;99.90;;;;;;4232465;28;20070;-85
2022/10/19 01:41:20;;;;;;;6.93;0.90;;;12.20;99.90;;;;;;4232330;28;20397;-85
2022/10/19 01:43:28;;;;;;;;;;;12.10;99.90;;;;;;4233011;28;20059;-86
2022/10/19 01:45:51;;;;;;;4.32;0.52;;;12.20;99.90;;;;;;4235366;28;19972;-85
2022/10/19 01:48:01;;;;;;;4.63;0.90;;;12.10;99.90;;;;;;4235518;28;20051;-85
2022/10/19 01:50:14;;;;;;;6.38;0.70;;;12.10;99.90;;;;;;4235038;28;20050;-85
2022/10/19 01:52:18;;;;;;;5.28;0.60;;;12.20;99.90;;;;;;4236687;28;20114;-85
2022/10/19 01:54:21;;;;;;;6.07;1.23;;;12.10;99.90;;;;;;4222356;28;20047;-86
2022/10/19 01:56:26;;;;;;;6.32;0.60;;;12.10;99.90;;;;;;4219065;28;20516;-86
2022/10/19 01:58:32;;;;;;;5.50;0.65;;;12.10;99.90;;;;;;4236551;28;20147;-86
2022/10/19 02:00:36;;;;;;;5.15;0.77;;;12.10;99.90;;;;;;4218593;28;20059;-86
2022/10/19 02:02:41;;;;;;;5.38;0.80;;;12.10;99.90;;;;;;4220417;28;20398;-86
2022/10/19 02:04:42;;;;;;;4.40;0.50;;;12.10;99.90;;;;;;4218730;28;20078;-86
2022/10/19 02:06:43;;;;;;;4.32;0.55;;;12.10;99.90;;;;;;4219726;28;20044;-86
2022/10/19 02:08:47;;;;;;;3.53;0.82;;;12.00;99.90;;;;;;4218579;28;20047;-86
2022/10/19 02:10:48;;;;;;;7.53;0.60;;;12.00;99.90;;;;;;4218518;28;20113;-86
2022/10/19 02:12:52;;;;;;;4.82;0.50;;;12.00;99.90;;;;;;4218387;28;20036;-86
2022/10/19 02:14:57;;;;;;;5.78;1.40;;;12.00;99.90;;;;;;4218502;28;20044;-86
2022/10/19 02:17:13;;;;;;;4.65;1.25;;;12.00;99.90;;;;;;4217143;28;20044;-86
2022/10/19 02:19:15;;;;;;;9.88;1.58;;;12.00;99.90;;;;;;4200396;28;20548;-86
2022/10/19 02:21:16;;;;;;;7.07;0.98;;;12.00;99.90;;;;;;4217684;28;20421;-86
2022/10/19 02:23:22;;;;;;;5.53;0.80;;;12.00;99.90;;;;;;4216508;28;20048;-86
2022/10/19 02:25:24;;;;;;;3.00;0.70;;;12.00;99.90;;;;;;4215225;28;20138;-86
2022/10/19 02:27:25;;;;;;;12.63;1.25;;;12.00;99.90;;;;;;4215192;28;20055;-86
2022/10/19 02:29:27;;;;;;;8.23;1.17;;;12.00;99.90;;;;;;4215602;28;20043;-86
2022/10/19 02:31:28;;;;;;;8.25;1.05;;;11.90;99.90;;;;;;4231997;28;20043;-86
2022/10/19 02:33:33;;;;;;;6.22;1.05;;;11.90;99.90;;;;;;4214851;28;20078;-87
2022/10/19 02:35:34;;;;;;;5.28;0.90;;;11.90;99.90;;;;;;4214784;28;20075;-87
2022/10/19 02:37:37;;;;;;;7.15;1.30;;;11.90;99.90;;;;;;4217348;28;20040;-87
2022/10/19 02:39:41;;;;;;;5.28;0.85;;;11.80;99.90;;;;;;4216546;28;20520;-86
2022/10/19 02:41:54;;;;;;;10.85;2.88;;;11.80;99.90;;;;;;4216724;28;20122;-87
2022/10/19 02:44:02;;;;;;;3.35;0.80;;;11.80;99.90;;;;;;4216030;28;20052;-86
2022/10/19 02:46:13;;;;;;;10.13;0.80;;;11.80;99.90;;;;;;4200272;28;20114;-86
2022/10/19 02:48:19;;;;;;;8.07;0.80;;;11.70;99.90;;;;;;4218358;28;20075;-87
2022/10/19 02:50:23;;;;;;;6.80;1.42;;;11.70;99.90;;;;;;4217493;28;20047;-86
2022/10/19 02:52:25;;;;;;;11.23;1.40;;;11.60;99.90;;;;;;4218346;28;20040;-86
2022/10/19 02:54:29;;;;;;;9.63;0.98;;;11.60;99.90;;;;;;4215837;28;20562;-86
2022/10/19 02:56:30;;;;;;;4.53;0.60;;;11.50;99.90;;;;;;4230488;28;20174;-87
2022/10/19 02:58:31;;;;;;;6.82;1.42;;;11.40;99.90;;;;;;4232818;28;20570;-87
2022/10/19 03:00:33;;;;;;;4.25;0.80;;;11.40;99.90;;;;;;4233708;28;20048;-86
2022/10/19 03:02:35;;;;;;;7.47;1.05;;;11.30;99.90;;;;;;4233257;28;20049;-86
2022/10/19 03:04:35;;;;;;;3.88;0.60;;;11.30;99.90;;;;;;4233491;28;20054;-85
2022/10/19 03:06:36;;;;;;;6.55;2.35;;;11.20;99.90;;;;;;4232639;28;20516;-86
2022/10/19 03:08:37;;;;;;;8.63;0.90;;;11.10;99.90;;;;;;4233129;28;20087;-85
2022/10/19 03:10:38;;;;;;;7.55;1.38;;;11.20;99.90;;;;;;4216274;28;20052;-86
2022/10/19 03:12:38;;;;;;;8.20;0.95;;;11.10;99.90;;;;;;4232083;28;20123;-86
2022/10/19 03:14:39;;;;;;;12.25;0.90;;;11.10;99.90;;;;;;4234733;28;20150;-86
2022/10/19 03:16:40;;;;;;;4.88;0.63;;;11.10;99.90;;;;;;4234484;28;20050;-86
2022/10/19 03:18:42;;;;;;;4.18;1.00;;;11.10;99.90;;;;;;4234690;28;20047;-85
2022/10/19 03:20:44;;;;;;;7.93;1.10;;;11.10;99.90;;;;;;4233822;27;20050;-86
2022/10/19 03:22:44;;;;;;;9.48;0.75;;;11.10;99.90;;;;;;4233179;28;20121;-85
2022/10/19 03:24:45;;;;;;;4.72;0.70;;;11.10;99.90;;;;;;4215595;28;20505;-86
2022/10/19 03:26:46;;;;;;;7.30;1.30;;;10.00;99.90;;;;;;4234465;28;20040;-86
2022/10/19 03:28:46;;;;;;;5.22;1.25;;;11.20;99.90;;;;;;4234643;28;20045;-87
2022/10/19 03:30:47;;;;;;;4.85;0.77;;;11.20;99.90;;;;;;4215522;28;20048;-86
2022/10/19 03:32:48;;;;;;;6.32;1.17;;;11.10;99.90;;;;;;4232876;28;20074;-86
2022/10/19 03:34:49;;;;;;;6.85;0.90;;;11.30;99.90;;;;;;4233482;28;20050;-86
2022/10/19 03:36:49;;;;;;;6.55;1.30;;;11.10;99.90;;;;;;4234225;28;20042;-86
2022/10/19 03:38:55;;;;;;;6.30;0.80;;;11.20;99.90;;;;;;4233965;28;20058;-86
2022/10/19 03:40:56;;;;;;;10.45;1.50;;;11.10;99.90;;;;;;4232648;28;20114;-86
2022/10/19 03:42:57;;;;;;;5.43;0.77;;;11.10;99.90;;;;;;4232491;28;20052;-87
2022/10/19 03:44:57;;;;;;;7.80;1.75;;;11.10;99.90;;;;;;4232506;28;20043;-87
2022/10/19 03:46:59;;;;;;;6.45;1.05;;;11.10;99.90;;;;;;4232625;28;20047;-87
2022/10/19 03:49:00;;;;;;;8.75;0.88;;;11.20;99.90;;;;;;4233417;28;20396;-86
2022/10/19 03:51:09;;;;;;;12.05;0.77;;;11.10;99.90;;;;;;4233901;28;20079;-87
2022/10/19 03:53:10;;;;;;;13.55;1.85;;;11.10;99.90;;;;;;4234158;28;20047;-87
2022/10/19 03:55:11;;;;;;;3.92;1.17;;;10.00;99.90;;;;;;4215709;28;20105;-87
2022/10/19 03:57:12;;;;;;;5.47;0.80;;;11.10;99.90;;;;;;4233267;28;20056;-87
2022/10/19 03:59:13;;;;;;;4.20;0.98;;;11.20;99.90;;;;;;4233503;28;20051;-87
2022/10/19 04:01:20;;;;;;;5.35;0.75;;;11.10;99.90;;;;;;4234508;28;20424;-86
2022/10/19 04:03:22;;;;;;;9.45;1.13;;;11.10;99.90;;;;;;4230931;28;20040;-86
2022/10/19 04:05:24;;;;;;;7.18;0.85;;;11.10;99.90;;;;;;4217153;28;20051;-86
2022/10/19 04:07:25;;;;;;;6.03;0.70;;;11.10;99.90;;;;;;4217355;28;20052;-87
2022/10/19 04:09:25;;;;;;;7.60;0.90;;;11.10;99.90;;;;;;4199085;28;20070;-87
2022/10/19 04:11:29;;;;;;;6.90;0.90;;;11.10;99.90;;;;;;4216826;28;20582;-86
2022/10/19 04:13:30;;;;;;;4.07;1.10;;;11.10;99.90;;;;;;4216442;28;20052;-87
2022/10/19 04:15:31;;;;;;;7.07;0.75;;;11.00;99.90;;;;;;4215010;28;20110;-87
2022/10/19 04:17:31;;;;;;;5.63;1.25;;;11.00;99.90;;;;;;4216387;28;20119;-87
2022/10/19 04:19:32;;;;;;;5.20;0.85;;;11.00;99.90;;;;;;4215565;28;20059;-87
2022/10/19 04:21:39;;;;;;;5.60;1.05;;;11.00;99.90;;;;;;4216100;28;20405;-86
2022/10/19 04:23:41;;;;;;;5.45;0.80;;;11.00;99.90;;;;;;4216763;28;20511;-87
2022/10/19 04:25:41;;;;;;;7.65;0.65;;;11.00;99.90;;;;;;4215527;28;20043;-87
2022/10/19 04:27:42;;;;;;;6.22;1.48;;;10.90;99.90;;;;;;4198627;28;20056;-86
2022/10/19 04:29:43;;;;;;;6.13;1.45;;;10.90;99.90;;;;;;4216807;28;20119;-86
2022/10/19 04:31:44;;;;;;;6.30;0.73;;;10.90;99.90;;;;;;4200555;28;20045;-87
2022/10/19 04:33:45;;;;;;;15.57;1.70;;;10.90;99.90;;;;;;4232587;28;20047;-86
2022/10/19 04:35:45;;;;;;;9.52;0.90;;;10.80;99.90;;;;;;4233085;28;20046;-86
2022/10/19 04:37:47;;;;;;;5.43;1.45;;;10.80;99.90;;;;;;4231496;28;20425;-86
2022/10/19 04:39:48;;;;;;;8.25;1.00;;;10.80;99.90;;;;;;4233218;28;20431;-85
2022/10/19 04:41:49;;;;;;;5.47;0.70;;;10.80;99.90;;;;;;4230121;28;20254;-86
2022/10/19 04:43:57;;;;;;;15.60;1.30;;;10.70;99.90;;;;;;4230142;28;20512;-86
2022/10/19 04:46:02;;;;;;;7.85;1.27;;;10.70;99.90;;;;;;4212959;28;20470;-86
2022/10/19 04:48:04;;;;;;;11.13;1.50;;;10.70;99.90;;;;;;4231364;28;20397;-86
2022/10/19 04:50:05;;;;;;;7.95;0.80;;;10.60;99.90;;;;;;4230592;28;20047;-86
2022/10/19 04:52:06;;;;;;;5.32;1.08;;;10.70;99.90;;;;;;4229576;28;20477;-86
2022/10/19 04:54:06;;;;;;;5.13;1.17;;;10.70;99.90;;;;;;4230681;28;20050;-86
2022/10/19 04:56:13;;;;;;;8.15;1.05;;;10.70;99.90;;;;;;4230949;28;20127;-86
2022/10/19 04:58:14;;;;;;;10.13;1.02;;;10.70;99.90;;;;;;4229813;28;20498;-87
2022/10/19 05:00:15;;;;;;;6.20;1.00;;;10.70;99.90;;;;;;4225098;28;20051;-87
2022/10/19 05:02:16;;;;;;;8.82;0.77;;;10.70;99.90;;;;;;4216219;28;20123;-87
2022/10/19 05:04:17;;;;;;;7.05;1.13;;;10.80;99.90;;;;;;4216466;28;20036;-87
2022/10/19 05:06:17;;;;;;;6.30;1.33;;;10.70;99.90;;;;;;4215557;28;20122;-88
2022/10/19 05:08:18;;;;;;;7.75;1.27;;;10.70;99.90;;;;;;4214813;28;20044;-87
2022/10/19 05:10:19;;;;;;;5.05;1.10;;;10.70;99.90;;;;;;4216458;28;20044;-87
2022/10/19 05:12:20;;;;;;;5.57;1.15;;;10.70;99.90;;;;;;4214863;28;20119;-87
2022/10/19 05:14:21;;;;;;;8.90;1.02;;;10.60;99.90;;;;;;4216327;28;20059;-87
2022/10/19 05:16:24;;;;;;;7.57;1.33;;;10.60;99.90;;;;;;4217866;28;20052;-87
2022/10/19 05:18:27;;;;;;;6.13;1.00;;;10.60;99.90;;;;;;4218306;28;20051;-86
2022/10/19 05:20:27;;;;;;;8.13;1.30;;;10.60;99.90;;;;;;4235470;28;20063;-85
2022/10/19 05:22:28;;;;;;;5.97;0.80;;;10.60;99.90;;;;;;4236085;28;20531;-85
2022/10/19 05:24:31;;;;;;;4.93;1.10;;;10.70;99.90;;;;;;4218720;28;20659;-85
2022/10/19 05:26:32;;;;;;;9.70;0.98;;;10.60;99.90;;;;;;4237054;27;20051;-85
2022/10/19 05:28:34;;;;;;;12.80;2.55;;;10.70;99.90;;;;;;4238986;28;20043;-85
2022/10/19 05:30:38;;;;;;;8.68;2.00;;;10.70;99.90;;;;;;4235398;28;20123;-86
2022/10/19 05:32:38;;;;;;;8.55;1.63;;;10.70;99.90;;;;;;4218212;28;20139;-86
2022/10/19 05:34:39;;;;;;;15.65;1.35;;;10.70;99.90;;;;;;4229832;28;20043;-86
2022/10/19 05:36:40;;;;;;;8.50;0.90;;;10.70;99.90;;;;;;4235349;28;20039;-86
2022/10/19 05:38:42;;;;;;;6.07;0.82;;;10.70;99.90;;;;;;4236310;28;20485;-86
2022/10/19 05:40:46;;;;;;;8.55;1.58;;;10.70;99.90;;;;;;4235183;28;20051;-87
2022/10/19 05:42:47;;;;;;;7.75;1.00;;;10.70;99.90;;;;;;4234588;28;20040;-85
2022/10/19 05:44:48;;;;;;;9.38;1.52;;;10.70;99.90;;;;;;4235121;28;20139;-86
2022/10/19 05:46:50;;;;;;;7.18;1.52;;;10.70;99.90;;;;;;4218010;28;20048;-86
2022/10/19 05:48:54;;;;;;;3.92;1.05;;;10.70;99.90;;;;;;4235852;28;20046;-87
2022/10/19 05:50:55;;;;;;;3.85;0.63;;;10.80;99.90;;;;;;4235962;28;20046;-86
2022/10/19 05:52:56;;;;;;;6.18;1.30;;;10.70;99.90;;;;;;4235258;27;20046;-86
2022/10/19 05:54:57;;;;;;;5.03;1.08;;;10.70;99.90;;;;;;4234121;28;20040;-86
2022/10/19 05:56:58;;;;;;;3.63;0.85;;;10.70;99.90;;;;;;4230968;28;20043;-87
2022/10/19 05:59:02;;;;;;;4.45;0.73;;;10.70;99.90;;;;;;4225030;28;20131;-87
2022/10/19 06:01:05;;;;;;;8.43;0.90;;;10.70;99.90;;;;;;4217423;28;20059;-86
2022/10/19 06:03:05;;;;;;;8.27;0.60;;;10.70;99.90;;;;;;4229989;28;20047;-86
2022/10/19 06:05:06;;;;;;;4.88;0.70;;;10.70;99.90;;;;;;4251170;27;20077;-87
2022/10/19 06:07:07;;;;;;;9.48;2.15;;;10.80;99.90;;;;;;4217164;28;20110;-87
2022/10/19 06:09:09;;;;;;;7.50;0.98;;;10.80;99.90;;;;;;4235391;28;20039;-88
2022/10/19 06:11:14;;;;;;;8.77;1.00;;;10.90;99.90;;;;;;4233375;28;20040;-87
2022/10/19 06:13:15;;;;;;;9.93;0.98;;;10.80;99.90;;;;;;4216721;28;20117;-87
2022/10/19 06:15:16;;;;;;;3.33;1.00;;;10.80;99.90;;;;;;4223308;28;20052;-88
2022/10/19 06:17:17;;;;;;;11.75;1.00;;;10.80;99.90;;;;;;4234589;28;20115;-88
2022/10/19 06:19:18;;;;;;;7.30;0.70;;;10.80;99.90;;;;;;4199904;28;20063;-86
2022/10/19 06:21:21;;;;;;;10.85;0.88;;;10.80;99.90;;;;;;4216721;28;20040;-88
2022/10/19 06:23:21;;;;;;;15.10;1.45;;;10.90;99.90;;;;;;4229607;28;20040;-87
2022/10/19 06:25:22;;;;;;;9.02;1.00;;;10.90;99.90;;;;;;4215865;28;20129;-87
2022/10/19 06:27:24;;;;;;;4.63;0.88;;;10.90;99.90;;;;;;4233698;28;20043;-87
2022/10/19 06:29:25;;;;;;;9.93;1.63;;;10.60;99.90;;;;;;4234658;28;20032;-87
2022/10/19 06:31:31;;;;;;;3.05;0.70;;;10.90;99.90;;;;;;4234797;28;20092;-87
2022/10/19 06:33:32;;;;;;;10.10;1.60;;;11.00;99.90;;;;;;4217199;28;20205;-87
2022/10/19 06:35:33;;;;;;;8.95;0.90;;;11.60;99.90;;;;;;4236106;28;20089;-88
2022/10/19 06:37:34;;;;;;;6.53;0.70;;;11.00;99.90;;;;;;4235124;28;20050;-88
2022/10/19 06:39:36;;;;;;;5.40;1.00;;;10.90;99.90;;;;;;4219822;28;20056;-90
2022/10/19 06:41:37;;;;;;;6.50;0.93;;;11.00;99.90;;;;;;4235699;28;20043;-87
2022/10/19 06:43:39;;;;;;;7.65;2.05;;;11.00;99.90;;;;;;4245363;28;20048;-88
2022/10/19 06:45:40;;;;;;;7.15;1.58;;;11.00;99.90;;;;;;4248955;28;20039;-88
2022/10/19 06:47:40;;;;;;;3.60;1.33;;;11.00;99.90;;;;;;4247078;28;20073;-87
2022/10/19 06:49:43;;;;;;;12.10;1.33;;;11.00;99.90;;;;;;4248179;27;20040;-89
2022/10/19 06:51:43;;;;;;;6.88;0.80;;;11.10;99.90;;;;;;4230935;28;20052;-88
2022/10/19 06:53:44;;;;;;;5.32;0.95;;;11.10;99.90;;;;;;4238377;28;20122;-87
2022/10/19 06:55:45;;;;;;;5.90;0.85;;;11.10;99.90;;;;;;4238742;28;20067;-87
2022/10/19 06:57:46;;;;;;;2.83;0.52;;;11.10;99.90;;;;;;4234279;28;20052;-88
2022/10/19 06:59:47;;;;;;;2.55;0.70;;;11.10;99.90;;;;;;4236581;28;20039;-88
2022/10/19 07:01:48;;;;;;;4.32;1.15;;;11.10;99.90;;;;;;4235106;28;20048;-88
2022/10/19 07:03:51;;;;;;;4.60;0.82;;;11.10;99.90;;;;;;4236957;28;20075;-88
2022/10/19 07:05:54;;;;;;;3.58;0.90;;;11.10;99.90;;;;;;4241208;28;20052;-87
2022/10/19 07:07:57;;;;;;;6.35;0.82;;;11.20;99.90;;;;;;4239353;28;20087;-88
2022/10/19 07:09:58;;;;;;;5.00;0.75;;;11.20;99.90;;;;;;4240886;28;20126;-88
2022/10/19 07:12:00;;;;;;;6.78;1.08;;;11.20;99.90;;;;;;4242463;28;20043;-89
2022/10/19 07:14:01;;;;;;;7.28;1.63;;;11.20;99.90;;;;;;4228865;28;20052;-91
2022/10/19 07:16:11;;;;;;;4.65;0.90;;;11.20;99.90;;;;;;4241995;28;20251;-89
2022/10/19 07:18:12;;;;;;;8.23;0.95;;;11.20;99.90;;;;;;4235981;28;20697;-90
2022/10/19 07:20:13;;;;;;;4.40;0.77;;;11.20;99.90;;;;;;4236347;28;20035;-91
2022/10/19 07:22:15;;;;;;;6.85;0.70;;;11.30;99.90;;;;;;4235234;28;20512;-89
2022/10/19 07:24:16;;;;;;;6.75;1.77;;;11.30;99.90;;;;;;4234758;28;20027;-89
2022/10/19 07:26:22;;;;;;;5.75;0.75;;;11.30;99.90;;;;;;4234279;28;20069;-87
2022/10/19 07:28:22;;;;;;;5.13;0.80;;;11.30;99.90;;;;;;4228679;28;20040;-87
2022/10/19 07:30:24;;;;;;;9.77;0.95;;;11.30;99.90;;;;;;4198518;28;20142;-86
2022/10/19 07:32:27;;;;;;;5.20;0.90;;;11.40;99.90;;;;;;4198409;28;20052;-88
2022/10/19 07:34:28;;;;;;;3.13;0.85;;;11.40;99.90;;;;;;4229948;28;20127;-88
2022/10/19 07:36:34;;;;;;;4.07;0.90;;;11.40;99.90;;;;;;4234747;28;20051;-88
2022/10/19 07:38:36;;;;;;;7.13;0.77;;;11.50;99.90;;;;;;4236701;28;20051;-89
2022/10/19 07:40:39;;;;;;;7.35;1.55;;;11.50;99.90;;;;;;4234500;28;20463;-88
2022/10/19 07:42:40;;;;;;;5.88;0.80;;;11.60;99.90;;;;;;4216469;28;20056;-88
2022/10/19 07:44:41;;;;;;;12.43;1.15;;;11.60;99.90;;;;;;4234128;28;20043;-88
2022/10/19 07:46:42;;;;;;;8.48;2.40;;;11.60;99.90;;;;;;4232711;28;20059;-88
2022/10/19 07:48:45;;;;;;;7.53;1.10;;;11.70;99.90;;;;;;4223723;28;20047;-88
2022/10/19 07:50:48;;;;;;;9.48;1.08;;;11.70;99.90;;;;;;4241265;27;20122;-88
2022/10/19 07:52:51;;;;;;;4.10;0.73;;;11.70;99.90;;;;;;4217004;28;20047;-88
2022/10/19 07:54:52;;;;;;;10.00;1.67;;;11.60;99.90;;;;;;4221193;28;20044;-88
2022/10/19 07:56:52;;;;;;;6.13;0.80;;;11.80;99.90;;;;;;4217981;28;20181;-88
2022/10/19 07:58:56;;;;;;;6.75;0.70;;;11.90;99.90;;;;;;4199489;28;20044;-90
2022/10/19 08:01:14;;;;;;;5.85;0.70;;;11.90;99.90;;;;;;4199086;28;20134;-88
2022/10/19 08:03:15;;;;;;;9.13;0.77;;;11.90;99.90;;;;;;4217304;28;20047;-88
2022/10/19 08:05:16;;;;;;;13.00;1.35;;;12.00;99.90;;;;;;4212834;28;20044;-89
2022/10/19 08:07:17;;;;;;;9.88;1.75;;;12.00;99.90;;;;;;4215565;28;20436;-88
2022/10/19 08:09:18;;;;;;;7.75;1.25;;;12.00;99.90;;;;;;4249806;27;20369;-89
2022/10/19 08:11:29;;;;;;;4.22;0.80;;;12.10;99.90;;;;;;4233983;28;20043;-89
2022/10/19 08:13:29;;;;;;;9.23;1.10;;;12.30;99.90;;;;;;4227897;28;20043;-88
2022/10/19 08:15:31;;;;;;;9.60;1.00;;;11.60;99.90;;;;;;4230201;28;20032;-88
2022/10/19 08:17:35;;;;;;;4.50;0.80;;;12.20;99.90;;;;;;4224136;28;20090;-88
2022/10/19 08:19:41;;;;;;;6.95;1.52;;;12.30;99.90;;;;;;4216418;28;20052;-89
2022/10/19 08:21:45;;;;;;;11.80;1.38;;;12.30;99.90;;;;;;4233691;28;20043;-91
2022/10/19 08:23:46;;;;;;;10.60;0.90;;;12.30;99.90;;;;;;4232609;28;20590;-91
2022/10/19 08:25:49;;;;;;;8.52;1.67;;;12.40;99.90;;;;;;4219056;28;20108;-87
2022/10/19 08:27:50;;;;;;;4.57;0.88;;;12.40;99.90;;;;;;4238279;28;20031;-88
2022/10/19 08:29:51;;;;;;;5.72;1.20;;;12.40;99.90;;;;;;4236780;28;20043;-87
2022/10/19 08:31:52;;;;;;;6.80;1.13;;;12.50;99.90;;;;;;4238978;28;20043;-89
2022/10/19 08:33:53;;;;;;;7.38;1.42;;;12.50;99.90;;;;;;4238545;28;20127;-88
2022/10/19 08:35:55;;;;;;;2.35;0.47;;;13.40;99.90;;;;;;4219710;28;20056;-87
2022/10/19 08:37:57;;;;;;;6.50;1.02;;;12.50;99.90;;;;;;4233403;28;20079;-90
2022/10/19 08:39:59;;;;;;;7.72;0.90;;;12.60;99.90;;;;;;4215440;28;20059;-88
2022/10/19 08:42:03;;;;;;;9.15;1.30;;;12.60;99.90;;;;;;4232672;28;20047;-87
2022/10/19 08:44:19;;;;;;;8.07;1.08;;;12.70;99.90;;;;;;4215485;28;20051;-88
2022/10/19 08:46:29;;;;;;;8.40;0.80;;;12.70;99.90;;;;;;4233023;28;20178;-90
2022/10/19 08:48:35;;;;;;;6.55;1.10;;;12.70;99.90;;;;;;4215576;28;20051;-88
2022/10/19 08:50:42;;;;;;;7.80;1.17;;;12.80;99.90;;;;;;4234045;28;20061;-88
2022/10/19 08:52:47;;;;;;;5.07;0.75;;;12.80;99.90;;;;;;4233261;28;20051;-87
2022/10/19 08:54:53;;;;;;;5.70;1.58;;;12.80;99.90;;;;;;4235214;28;20127;-88
2022/10/19 08:57:23;;;;;;;6.90;1.42;;;12.80;99.90;;;;;;4237079;27;20082;-87
2022/10/19 09:00:01;;;;;;;2.72;0.90;;;12.90;99.90;;;;;;4235265;28;20051;-88
2022/10/19 09:02:47;;;;;;;3.80;0.93;;;13.00;99.90;;;;;;4235447;28;20052;-87
2022/10/19 09:04:57;;;;;;;7.30;0.77;;;13.10;99.90;;;;;;4183948;28;20124;-88
2022/10/19 09:07:28;;;;;;;7.78;1.20;;;13.20;99.90;;;;;;4201378;28;20659;-88
2022/10/19 09:09:31;;;;;;;9.45;0.73;;;13.20;99.90;;;;;;4207170;28;20056;-88
2022/10/19 09:11:37;;;;;;;4.88;1.08;;;13.30;99.90;;;;;;4240339;28;20088;-88
2022/10/19 09:13:44;;;;;;;9.45;0.90;;;13.40;99.90;;;;;;4236364;28;20094;-87
2022/10/19 09:15:48;;;;;;;4.55;1.30;;;13.40;99.90;;;;;;4235195;28;20056;-89
2022/10/19 09:17:49;;;;;;;3.13;1.08;;;13.40;99.90;;;;;;4237022;28;20044;-89
2022/10/19 09:19:51;;;;;;;9.10;1.58;;;13.50;99.90;;;;;;4218455;28;20604;-89
2022/10/19 09:22:07;;;;;;;8.77;1.67;;;13.40;99.90;;;;;;4218250;28;20047;-89
2022/10/19 09:24:43;;;;;;;6.30;1.23;;;13.40;99.60;;;;;;4219602;28;20580;-89
2022/10/19 09:26:52;;;;;;;5.85;1.08;;;13.40;99.50;;;;;;4221558;28;20052;-89
2022/10/19 09:29:11;;;;;;;6.30;0.93;;;13.50;99.70;;;;;;4230311;28;20454;-89
2022/10/19 09:31:21;;;;;;;5.28;0.80;;;13.50;99.50;;;;;;4219358;27;20589;-89
2022/10/19 09:33:38;;;;;;;7.80;1.35;;;13.50;99.60;;;;;;4219136;28;20418;-89
2022/10/19 09:35:43;;;;;;;8.50;1.08;;;13.50;99.40;;;;;;4234623;28;20496;-89
2022/10/19 09:37:47;;;;;;;8.73;1.35;;;13.50;99.60;;;;;;4233275;28;20055;-89
2022/10/19 09:39:51;;;;;;;7.40;1.83;;;13.50;99.70;;;;;;4217007;28;20048;-89
2022/10/19 09:42:04;;;;;;;10.43;2.10;;;13.40;99.60;;;;;;4217252;28;20043;-89
2022/10/19 09:44:05;;;;;;;6.95;1.67;;;14.40;99.90;;;;;;4235649;28;20047;-88
2022/10/19 09:46:23;;;;;;;7.50;1.00;;;13.50;99.90;;;;;;4234286;28;20409;-89
2022/10/19 09:48:49;;;;;;;7.68;1.50;;;13.50;99.50;;;;;;4234917;28;20504;-88
2022/10/19 09:51:02;;;;;;;6.07;1.17;;;13.50;99.50;;;;;;4234704;28;20134;-89
2022/10/19 09:53:04;;;;;;;8.27;1.52;;;13.50;99.60;;;;;;4217517;28;20154;-88
2022/10/19 09:55:26;;;;;;;7.53;0.68;;;12.70;99.40;;;;;;4234140;28;20118;-88
2022/10/19 09:57:27;;;;;;;5.07;0.80;;;13.30;99.30;;;;;;4218027;28;20080;-89
2022/10/19 09:59:33;;;;;;;8.68;1.70;;;13.50;99.80;;;;;;4236581;28;20042;-91
2022/10/19 10:01:37;;;;;;;10.93;1.25;;;13.50;99.40;;;;;;4218037;28;20056;-90
2022/10/19 10:03:39;;;;;;;9.27;1.02;;;13.60;99.40;;;;;;4217677;28;20408;-89
2022/10/19 10:05:46;;;;;;;8.38;1.65;;;13.50;99.50;;;;;;4236210;28;20508;-89
2022/10/19 10:07:52;;;;;;;6.47;0.95;;;13.60;99.60;;;;;;4235193;28;20048;-89
2022/10/19 10:09:53;;;;;;;9.15;1.42;;;13.60;99.50;;;;;;4218374;28;20048;-89
2022/10/19 10:11:58;;;;;;;6.35;0.80;;;13.50;99.70;;;;;;4234697;28;20130;-89
2022/10/19 10:14:09;;;;;;;5.55;1.33;;;13.60;99.60;;;;;;4235315;27;20055;-90
2022/10/19 10:16:14;;;;;;;4.32;1.70;;;13.60;99.70;;;;;;4235184;28;20048;-90
2022/10/19 10:18:17;;;;;;;4.88;1.25;;;13.50;99.70;;;;;;4217323;28;20086;-91
2022/10/19 10:20:23;;;;;;;5.55;0.77;;;13.70;99.70;;;;;;4235687;28;20101;-92
2022/10/19 10:22:31;;;;;;;5.10;1.23;;;13.70;99.60;;;;;;4217755;28;20127;-88
2022/10/19 10:24:33;;;;;;;11.05;1.20;;;13.70;99.60;;;;;;4235933;28;20044;-91
2022/10/19 10:26:48;;;;;;;6.80;0.90;;;13.70;99.80;;;;;;4235409;28;20408;-91
2022/10/19 10:28:50;;;;;;;7.55;1.35;;;13.70;99.30;;;;;;4202732;28;20104;-91
2022/10/19 10:31:04;;;;;;;5.72;1.00;;;13.70;99.50;;;;;;4218497;28;20768;-91
2022/10/19 10:33:13;;;;;;;11.85;0.90;;;13.80;99.10;;;;;;4220254;28;20052;-91
2022/10/19 10:35:34;;;;;;;3.30;0.85;;;14.00;99.30;;;;;;4202782;28;20036;-92
2022/10/19 10:37:38;;;;;;;6.32;1.35;;;14.00;98.10;;;;;;4207210;28;20032;-92
2022/10/19 10:39:43;;;;;;;20.52;2.30;;;14.10;98.20;;;;;;4234618;28;20086;-89
2022/10/19 10:41:47;;;;;;;7.43;0.88;;;14.10;98.20;;;;;;4233651;28;20044;-86
2022/10/19 10:44:02;;;;;;;5.68;0.75;;;14.20;97.90;;;;;;4233777;28;20035;-88
2022/10/19 10:46:07;;;;;;;6.88;1.00;;;14.20;97.90;;;;;;4233640;28;20086;-86
2022/10/19 10:48:29;;;;;;;5.28;0.57;;;13.50;97.80;;;;;;4233051;28;20032;-88